Kiryat Shmone, Israel
Current Conditions -  °F | °C
As of 6:50 PM on Thursday 18 Dec 2014 (Local Time) from LLHA Reporting Station
Clear Clear  
Wind Chill: 61°   Ceiling: Unl
Heat Index: 61°   Visibility: 6mi
Dew Point: 48°   Wind: 8mph
Humidity: 63%   Direction: 120°ESE
Pressure: 30.09"   Gusts: NA
Location:  33.18°N, 35.57°E
Report Text: LLHA 181550Z 12007KT CAVOK 16/09 Q1019 RMK BKN140
Loading
Personal Weather Stations






























Interactive Weather Map New forecast layout! Learn more

10-Day Weather Forecast

Advertisements
Track Severe Weather on mobile